Time;durP1;ratioP1;P1;durP2;ratioP2;P2;SDS_P1;SDS_P2;PMS_P1;PMS_P2;Temp;Humidity;BMP_temperature;BMP_pressure;BME280_temperature;BME280_humidity;BME280_pressure;Samples;Min_cycle;Max_cycle;Signal;HPM_P1;HPM_P2
2024/03/10 00:01:56;;;;;;;7.63;6.83;;;5.20;99.90;;;6.04;93.46;96012.34;10422038;28;20235;-66
2024/03/10 00:06:59;;;;;;;12.47;9.40;;;5.20;99.90;;;6.11;94.10;96011.78;10380533;22;20237;-65
2024/03/10 00:12:03;;;;;;;10.20;8.53;;;5.40;99.90;;;6.16;94.00;96002.72;10335436;28;20370;-66
2024/03/10 00:17:09;;;;;;;14.27;10.63;;;5.50;99.90;;;6.32;93.34;96010.19;10312545;28;20266;-65
2024/03/10 00:22:12;;;;;;;7.73;6.77;;;5.60;99.90;;;6.39;92.88;96013.00;10304512;28;20226;-66
2024/03/10 00:27:16;;;;;;;9.53;7.60;;;5.60;99.90;;;6.24;93.46;96000.53;10304339;28;20314;-66
2024/03/10 00:32:21;;;;;;;10.70;9.63;;;5.40;99.90;;;6.31;93.84;95985.63;10302635;28;20228;-66
2024/03/10 00:37:24;;;;;;;7.90;7.10;;;5.60;99.90;;;6.39;93.29;95990.16;10301187;28;20246;-66
2024/03/10 00:42:29;;;;;;;9.17;8.20;;;5.60;99.90;;;6.40;93.07;95991.88;10304083;28;20227;-65
2024/03/10 00:47:36;;;;;;;7.77;6.97;;;5.60;99.90;;;6.47;92.28;95992.22;10303460;28;20235;-65
2024/03/10 00:52:40;;;;;;;7.73;6.93;;;5.70;99.90;;;6.53;93.15;95984.84;10306870;28;20706;-66
2024/03/10 00:57:45;;;;;;;7.80;6.70;;;5.80;99.90;;;6.63;91.83;95985.25;10304318;28;20231;-66
2024/03/10 01:02:50;;;;;;;8.03;7.33;;;5.90;99.90;;;6.60;92.05;95978.34;10306761;28;20309;-66
2024/03/10 01:07:54;;;;;;;6.97;6.37;;;5.90;99.90;;;6.65;91.03;95979.44;10305839;28;20616;-66
2024/03/10 01:12:58;;;;;;;7.50;6.70;;;5.90;99.90;;;6.72;91.54;95978.88;10300270;28;20291;-66
2024/03/10 01:18:04;;;;;;;7.70;7.00;;;6.00;99.90;;;6.73;92.03;95967.06;10300330;28;20321;-66
2024/03/10 01:23:07;;;;;;;7.40;6.70;;;6.00;99.90;;;6.64;91.57;95954.84;10303568;28;20229;-66
2024/03/10 01:28:11;;;;;;;8.43;7.63;;;5.90;99.90;;;6.64;90.74;95961.56;10299044;28;20297;-66
2024/03/10 01:33:16;;;;;;;7.50;6.77;;;5.90;99.90;;;6.69;90.56;95940.66;10303689;28;20262;-67
2024/03/10 01:38:19;;;;;;;8.33;7.63;;;6.00;99.90;;;6.68;89.64;95938.94;10303654;28;20232;-66
2024/03/10 01:43:22;;;;;;;7.87;7.23;;;6.00;99.90;;;6.83;88.37;95942.91;10304648;28;20613;-66
2024/03/10 01:48:27;;;;;;;8.37;6.47;;;6.10;99.90;;;6.85;88.73;95923.50;10298109;28;20310;-66
2024/03/10 01:53:31;;;;;;;7.10;6.47;;;6.10;99.90;;;6.90;88.76;95919.50;10302051;28;20231;-66
2024/03/10 01:58:37;;;;;;;6.80;6.20;;;6.10;99.90;;;6.85;90.05;95916.75;10300275;28;20230;-66
2024/03/10 02:03:43;;;;;;;7.50;6.37;;;6.00;99.90;;;6.55;88.90;95906.22;10301091;28;20377;-66
2024/03/10 02:08:47;;;;;;;6.47;5.80;;;5.90;99.90;;;6.70;89.04;95911.94;10302622;28;20229;-66
2024/03/10 02:13:50;;;;;;;5.93;5.33;;;6.00;99.90;;;6.64;90.23;95896.47;10296612;28;20234;-66
2024/03/10 02:18:55;;;;;;;6.97;6.37;;;5.90;99.90;;;6.57;89.57;95901.22;10304661;28;20226;-66
2024/03/10 02:24:11;;;;;;;6.83;6.20;;;5.80;99.90;;;6.58;89.78;95898.78;10302244;28;20243;-66
2024/03/10 02:29:18;;;;;;;7.13;6.43;;;5.90;99.90;;;6.65;88.63;95888.03;10299484;28;20261;-66
2024/03/10 02:50:26;;;;;;;6.13;5.63;;;5.90;99.90;;;6.57;91.29;95858.94;10296542;28;20310;-66
2024/03/10 02:55:29;;;;;;;6.00;5.40;;;5.70;99.90;;;6.44;92.51;95846.56;10302102;28;20236;-66
2024/03/10 03:00:35;;;;;;;6.27;5.67;;;5.60;99.90;;;6.40;92.26;95842.19;10295166;28;20244;-67
2024/03/10 03:05:39;;;;;;;5.80;5.30;;;5.60;99.90;;;6.25;94.30;95835.69;10298559;28;20231;-67
2024/03/10 03:10:44;;;;;;;5.90;5.40;;;5.40;99.90;;;6.15;93.74;95832.72;10296574;28;20232;-66
2024/03/10 03:15:50;;;;;;;6.13;5.57;;;5.30;99.90;;;6.12;93.46;95838.50;10292844;28;20234;-66
2024/03/10 03:20:53;;;;;;;5.70;5.20;;;5.30;99.90;;;6.14;93.43;95831.84;10300237;28;20578;-66
2024/03/10 03:25:56;;;;;;;5.70;4.93;;;5.30;99.90;;;6.11;94.62;95825.78;10296565;28;20615;-65
2024/03/10 03:31:03;;;;;;;6.17;5.67;;;5.30;99.90;;;6.07;93.43;95812.13;10297330;28;20270;-66
2024/03/10 03:36:07;;;;;;;6.40;5.80;;;5.30;99.90;;;6.13;92.17;95802.22;10299641;28;20239;-66
2024/03/10 03:41:10;;;;;;;5.73;5.20;;;5.40;99.90;;;6.18;90.91;95804.94;10296673;28;20230;-66
2024/03/10 03:46:15;;;;;;;5.77;5.27;;;5.40;99.90;;;6.18;91.42;95800.75;10295784;28;20254;-66
2024/03/10 03:51:18;;;;;;;6.60;5.40;;;5.50;99.90;;;6.15;91.40;95797.19;10296335;28;20282;-66
2024/03/10 03:56:21;;;;;;;5.97;5.37;;;5.40;99.90;;;6.09;91.65;95802.91;10296252;28;20235;-66
2024/03/10 04:01:26;;;;;;;5.80;5.30;;;5.30;99.90;;;6.15;90.90;95781.97;10300762;28;20659;-66
2024/03/10 04:06:29;;;;;;;5.80;5.30;;;5.40;99.90;;;6.12;90.79;95780.19;10296821;28;20918;-66
2024/03/10 04:11:32;;;;;;;5.73;5.23;;;5.40;99.90;;;6.14;90.46;95781.13;10297925;28;20413;-66
2024/03/10 04:16:37;;;;;;;5.40;4.90;;;5.40;99.90;;;6.17;90.32;95757.56;10297633;28;20228;-66
2024/03/10 04:21:40;;;;;;;5.20;4.80;;;5.40;99.90;;;6.07;90.92;95746.19;10293262;28;20342;-66
2024/03/10 04:26:44;;;;;;;5.90;5.30;;;5.30;99.90;;;5.99;90.30;95730.66;10297769;28;20269;-66
2024/03/10 04:31:49;;;;;;;5.43;4.93;;;5.20;99.90;;;6.03;88.54;95719.81;10304082;28;20231;-66
2024/03/10 04:36:53;;;;;;;5.60;5.10;;;5.30;99.90;;;6.02;89.78;95707.09;10305209;28;20708;-66
2024/03/10 04:41:56;;;;;;;5.13;4.73;;;5.30;99.90;;;5.98;88.90;95708.66;10304786;28;20992;-66
2024/03/10 04:47:00;;;;;;;5.47;5.07;;;5.20;99.90;;;5.93;89.16;95709.25;10302120;28;20779;-66
2024/03/10 04:52:04;;;;;;;5.43;4.60;;;5.20;99.90;;;5.87;88.82;95715.81;10305479;28;20239;-67
2024/03/10 04:57:07;;;;;;;5.50;5.00;;;5.20;99.90;;;5.92;88.69;95710.03;10308032;28;20242;-67
2024/03/10 05:02:12;;;;;;;7.17;5.40;;;5.20;99.90;;;5.83;88.46;95703.78;10308149;28;20227;-66
2024/03/10 05:07:15;;;;;;;5.33;4.83;;;5.10;99.90;;;5.78;88.19;95710.38;10308845;28;20245;-67
2024/03/10 05:12:18;;;;;;;5.47;4.70;;;5.10;99.90;;;5.85;88.06;95711.47;10310596;28;20231;-67
2024/03/10 05:17:23;;;;;;;5.17;4.67;;;5.10;99.90;;;5.87;87.51;95715.81;10306209;28;20234;-66
2024/03/10 05:22:26;;;;;;;5.37;4.97;;;5.20;99.90;;;5.98;88.72;95722.97;10310020;28;21251;-66
2024/03/10 05:27:30;;;;;;;5.47;4.97;;;5.20;99.90;;;5.77;88.60;95728.91;10308011;28;20235;-66
2024/03/10 05:32:35;;;;;;;4.87;4.47;;;5.10;99.90;;;5.82;87.93;95729.97;10307582;28;20310;-66
2024/03/10 05:37:41;;;;;;;4.77;4.37;;;5.10;99.90;;;5.70;89.46;95721.88;10311633;28;20235;-65
2024/03/10 05:42:45;;;;;;;4.77;4.37;;;5.00;99.90;;;5.73;89.80;95719.44;10306573;28;20222;-66
2024/03/10 05:47:50;;;;;;;4.93;4.50;;;4.90;99.90;;;5.57;90.64;95734.81;10308484;28;20379;-66
2024/03/10 05:52:53;;;;;;;4.63;4.23;;;4.80;99.90;;;5.52;91.03;95721.09;10309132;28;20226;-66
2024/03/10 05:57:56;;;;;;;5.10;4.70;;;4.70;99.90;;;5.45;92.01;95734.31;10312714;28;20615;-66
2024/03/10 06:03:01;;;;;;;5.13;4.47;;;4.60;99.90;;;5.41;93.42;95728.25;10310673;28;20234;-66
2024/03/10 06:08:05;;;;;;;4.67;4.27;;;4.60;99.90;;;5.42;92.44;95743.50;10377097;22;20222;-67
2024/03/10 06:13:08;;;;;;;9.27;5.53;;;4.50;99.90;;;5.45;92.89;95752.06;10352341;28;20234;-65
2024/03/10 06:18:21;;;;;;;5.23;4.77;;;4.60;99.90;;;5.33;92.56;95758.31;10342841;28;20281;-66
2024/03/10 06:28:45;;;;;;;6.60;5.37;;;4.80;99.90;;;5.56;91.68;95733.09;10325054;28;20555;-65
2024/03/10 06:33:49;;;;;;;5.30;4.90;;;4.70;99.90;;;5.49;92.42;95726.03;10334134;28;22066;-66
2024/03/10 06:38:53;;;;;;;4.50;4.10;;;4.70;99.90;;;5.53;91.14;95716.09;10338599;28;20722;-66
2024/03/10 06:43:56;;;;;;;4.77;4.33;;;4.80;99.90;;;5.67;90.41;95706.53;10341673;28;20321;-65
2024/03/10 06:49:01;;;;;;;4.17;3.83;;;4.90;99.90;;;5.62;88.70;95715.63;10342094;28;20638;-67
2024/03/10 06:54:04;;;;;;;4.27;3.97;;;5.00;99.90;;;5.71;87.07;95715.97;10342943;28;20222;-66
2024/03/10 06:59:08;;;;;;;4.10;3.80;;;5.00;99.90;;;5.91;85.72;95711.72;10342411;28;20613;-65
2024/03/10 07:04:13;;;;;;;5.27;4.77;;;5.20;99.90;;;6.23;85.71;95710.47;10341381;28;20945;-65
2024/03/10 07:09:18;;;;;;;4.10;3.70;;;5.50;99.90;;;6.03;85.42;95691.06;10343053;28;20237;-66
2024/03/10 07:14:21;;;;;;;4.00;3.70;;;5.30;99.90;;;6.24;83.45;95709.69;10343557;28;20695;-66
2024/03/10 07:19:26;;;;;;;4.37;3.97;;;5.60;99.90;;;6.46;82.99;95677.50;10342168;28;20227;-66
2024/03/10 07:24:29;;;;;;;4.07;3.77;;;5.80;99.90;;;6.47;82.44;95658.94;10342030;28;20720;-66
2024/03/10 07:29:33;;;;;;;4.53;4.20;;;5.80;99.90;;;6.53;80.43;95659.16;10358871;28;20230;-67
2024/03/10 07:34:38;;;;;;;4.50;4.10;;;5.90;99.90;;;6.77;80.42;95649.03;10352699;28;20234;-66
2024/03/10 07:39:42;;;;;;;4.80;4.40;;;6.10;99.90;;;6.83;80.87;95649.22;10355855;28;20616;-66
2024/03/10 07:44:45;;;;;;;4.70;4.30;;;6.20;99.90;;;6.91;82.20;95654.59;10362922;28;20249;-66
2024/03/10 07:49:49;;;;;;;4.33;4.00;;;6.20;99.90;;;6.91;81.27;95647.84;10358168;28;20773;-66
2024/03/10 07:54:53;;;;;;;4.10;3.80;;;6.20;99.90;;;7.01;80.28;95656.66;10356338;28;20497;-66
2024/03/10 07:59:56;;;;;;;4.67;4.20;;;6.40;99.90;;;7.34;79.70;95679.78;10357035;28;20228;-66
2024/03/10 08:05:01;;;;;;;4.87;4.37;;;6.50;99.90;;;7.36;81.52;95690.03;10363258;28;20218;-65
2024/03/10 08:10:05;;;;;;;4.33;4.03;;;6.50;99.90;;;7.44;81.33;95712.34;10356709;28;20214;-66
2024/03/10 08:15:11;;;;;;;5.03;4.53;;;6.70;99.90;;;7.60;78.17;95695.91;10355501;28;20230;-66
2024/03/10 08:20:16;;;;;;;5.33;4.73;;;6.90;99.90;;;8.24;76.51;95698.78;10355927;28;20231;-65
2024/03/10 08:25:20;;;;;;;5.77;5.27;;;7.50;99.90;;;8.99;75.60;95693.41;10362521;28;20226;-64
2024/03/10 08:30:23;;;;;;;5.03;4.53;;;8.30;99.90;;;9.40;70.74;95676.66;10356401;28;20235;-66
2024/03/10 08:35:27;;;;;;;4.65;4.25;;;8.70;99.90;;;9.68;70.00;95677.38;10360051;28;20226;-66
2024/03/10 08:40:34;;;;;;;4.07;3.77;;;8.90;99.90;;;9.57;68.33;95638.84;10355719;28;20222;-66
2024/03/10 08:45:38;;;;;;;3.22;2.80;;;9.00;99.90;;;10.12;65.44;95619.72;10355595;28;20241;-65
2024/03/10 08:50:44;;;;;;;3.10;2.90;;;9.50;99.90;;;10.59;63.16;95627.56;10364749;28;20254;-66
2024/03/10 08:55:47;;;;;;;2.88;2.67;;;9.90;99.90;;;10.44;63.65;95628.94;10357160;28;20633;-66
2024/03/10 09:00:51;;;;;;;2.95;2.75;;;9.80;99.90;;;10.66;63.33;95632.81;10355731;28;20615;-66
2024/03/10 09:05:55;;;;;;;3.00;2.78;;;9.90;99.90;;;10.76;61.30;95633.03;10354704;28;20910;-65
2024/03/10 09:11:00;;;;;;;3.35;3.05;;;10.00;99.90;;;10.73;62.20;95594.66;10355663;28;20232;-65
2024/03/10 09:16:09;;;;;;;3.20;3.00;;;10.00;99.90;;;10.89;61.45;95584.72;10354315;28;20227;-66
2024/03/10 09:21:14;;;;;;;3.53;3.22;;;10.10;99.90;;;11.12;59.71;95590.25;10360949;28;20333;-65
2024/03/10 09:26:17;;;;;;;2.97;2.78;;;10.30;99.90;;;11.34;59.64;95640.09;10368760;28;20300;-65
2024/03/10 09:31:21;;;;;;;3.28;2.95;;;10.40;99.90;;;11.29;59.24;95637.44;10369898;28;20225;-65
2024/03/10 09:36:27;;;;;;;3.25;2.95;;;10.50;99.90;;;11.07;59.19;95653.19;10364350;28;20610;-66
2024/03/10 09:41:31;;;;;;;4.05;3.75;;;10.40;99.90;;;11.29;57.84;95650.22;10366626;28;20226;-66
2024/03/10 09:46:35;;;;;;;4.60;3.97;;;10.60;99.90;;;11.28;59.75;95648.50;10367495;28;20225;-65
2024/03/10 09:51:41;;;;;;;4.32;3.90;;;10.60;99.90;;;11.48;58.58;95643.75;10363776;28;20313;-65
2024/03/10 09:56:46;;;;;;;4.25;3.88;;;10.70;99.90;;;11.85;58.69;95665.72;10370333;28;20253;-65
2024/03/10 10:01:53;;;;;;;4.28;3.88;;;11.00;99.90;;;12.24;55.07;95644.13;10361779;28;20232;-65
2024/03/10 10:06:57;;;;;;;3.33;3.10;;;11.40;99.90;;;11.87;56.34;95625.66;10362765;28;20737;-65
2024/03/10 10:12:01;;;;;;;3.05;2.85;;;11.30;99.90;;;11.90;56.63;95602.69;10364394;28;20607;-66
2024/03/10 10:17:06;;;;;;;3.17;2.97;;;11.30;99.90;;;12.13;56.45;95605.59;10366841;28;20577;-65
2024/03/10 10:22:11;;;;;;;2.83;2.63;;;11.40;99.90;;;12.13;55.09;95626.06;10360682;28;20227;-65
2024/03/10 10:27:15;;;;;;;3.40;3.10;;;11.50;99.90;;;12.39;54.27;95611.06;10366575;28;20738;-65
2024/03/10 10:32:21;;;;;;;2.50;2.33;;;11.70;99.90;;;12.57;53.86;95607.88;10360492;28;20339;-65
2024/03/10 10:37:34;;;;;;;2.90;2.65;;;11.90;99.90;;;12.67;54.00;95613.97;10361110;28;20234;-66
2024/03/10 10:42:37;;;;;;;15.65;14.35;;;12.00;99.90;;;12.64;55.21;95593.41;10365372;28;20232;-65
2024/03/10 10:47:54;;;;;;;4.15;3.85;;;11.90;99.90;;;12.84;54.33;95591.94;10562146;27;20889;-65
2024/03/10 10:52:58;;;;;;;4.43;4.10;;;12.00;99.90;;;13.06;53.24;95593.06;10507859;28;20345;-64
2024/03/10 10:58:05;;;;;;;3.10;2.90;;;12.20;99.30;;;13.03;54.09;95593.03;10559287;27;20709;-64
2024/03/10 11:03:16;;;;;;;3.17;2.95;;;12.20;99.70;;;12.94;51.97;95592.06;10550127;27;20277;-65
2024/03/10 11:08:21;;;;;;;3.00;2.80;;;12.20;98.60;;;12.76;53.29;95585.91;10543020;27;20231;-65
2024/03/10 11:13:25;;;;;;;2.58;2.47;;;12.00;99.10;;;12.96;54.03;95586.13;10546473;27;20367;-65
2024/03/10 11:18:30;;;;;;;2.42;2.33;;;12.10;99.30;;;13.14;54.31;95582.03;10540210;27;20346;-65
2024/03/10 11:23:40;;;;;;;3.35;3.15;;;12.20;99.90;;;13.22;52.93;95588.06;10538995;27;20223;-65
2024/03/10 11:28:49;;;;;;;15.98;13.57;;;12.30;99.00;;;13.24;52.98;95576.13;10541752;27;20721;-65
2024/03/10 11:33:57;;;;;;;9.73;8.77;;;12.50;98.80;;;12.99;54.11;95565.63;10537470;27;20235;-65
2024/03/10 11:39:02;;;;;;;8.35;7.55;;;12.40;98.70;;;13.18;53.07;95563.25;10534268;27;20258;-65
2024/03/10 11:44:06;;;;;;;6.63;6.13;;;12.40;99.20;;;13.01;53.66;95569.06;10543177;27;20653;-65
2024/03/10 11:49:12;;;;;;;4.00;3.70;;;12.30;99.10;;;13.38;54.63;95563.47;10558099;27;20232;-65
2024/03/10 11:54:16;;;;;;;6.43;5.82;;;12.60;99.90;;;13.52;53.71;95567.88;10548406;27;20706;-65
2024/03/10 11:59:19;;;;;;;5.88;5.47;;;12.70;99.60;;;13.51;53.41;95575.56;10522653;27;20243;-65
2024/03/10 12:04:24;;;;;;;2.38;2.28;;;12.70;99.50;;;13.84;51.59;95585.22;10509862;28;20765;-65
2024/03/10 12:09:27;;;;;;;2.75;2.55;;;13.00;98.30;;;14.25;52.24;95591.50;10415972;23;20232;-68
2024/03/10 12:14:37;;;;;;;2.83;2.42;;;13.40;97.90;;;14.17;51.59;95578.63;10369129;28;20244;-67
2024/03/10 12:19:43;;;;;;;3.70;2.20;;;13.40;97.80;;;14.22;50.97;95566.63;10391422;28;20226;-67
2024/03/10 12:24:46;;;;;;;2.30;2.20;;;13.40;97.50;;;14.28;52.10;95568.38;10383555;28;20264;-68
2024/03/10 12:29:49;;;;;;;2.45;2.20;;;13.40;98.40;;;14.33;51.48;95559.84;10385763;28;20231;-68
2024/03/10 12:34:54;;;;;;;2.30;2.20;;;13.50;98.10;;;14.56;51.14;95551.41;10386823;28;20230;-67
2024/03/10 12:39:57;;;;;;;2.50;2.40;;;13.70;97.40;;;14.51;50.40;95547.97;10387974;28;20253;-68
2024/03/10 12:45:00;;;;;;;2.80;2.60;;;13.70;97.10;;;14.59;50.16;95556.56;10386642;28;21409;-67
2024/03/10 12:50:07;;;;;;;3.50;3.20;;;13.80;96.80;;;14.69;50.31;95548.03;10376221;28;20756;-66
2024/03/10 12:55:12;;;;;;;2.60;2.40;;;13.80;96.90;;;14.63;50.43;95542.88;10385273;28;20230;-68
2024/03/10 13:00:27;;;;;;;2.45;2.13;;;13.90;96.80;;;14.75;50.03;95553.22;10382476;28;20284;-68
2024/03/10 13:05:34;;;;;;;2.42;2.22;;;14.00;96.00;;;14.87;50.98;95560.09;10385684;28;20237;-67
2024/03/10 13:10:37;;;;;;;4.10;3.70;;;14.00;97.00;;;15.03;50.12;95553.28;10388624;28;20283;-68
2024/03/10 13:15:41;;;;;;;2.72;2.53;;;14.10;96.60;;;14.62;50.20;95556.56;10390892;28;20237;-67
2024/03/10 13:20:45;;;;;;;2.53;2.22;;;14.00;95.80;;;14.71;50.98;95556.63;10384182;28;20815;-67
2024/03/10 13:25:49;;;;;;;2.70;2.50;;;13.90;96.60;;;14.67;50.61;95548.91;10388186;28;20684;-67
2024/03/10 13:30:52;;;;;;;2.38;2.22;;;13.90;96.60;;;14.82;50.97;95541.22;10391735;28;20281;-66
2024/03/10 13:35:56;;;;;;;2.65;2.30;;;14.00;97.00;;;14.63;50.61;95532.59;10379157;28;20688;-67
2024/03/10 13:41:15;;;;;;;2.60;2.40;;;13.90;96.30;;;14.57;50.92;95522.31;10383797;28;20230;-66
2024/03/10 13:46:19;;;;;;;2.40;2.30;;;13.90;96.40;;;14.70;50.63;95549.75;10390137;28;20229;-68
2024/03/10 13:51:23;;;;;;;2.30;2.03;;;13.90;96.70;;;14.63;51.38;95548.03;10404187;28;20260;-67
2024/03/10 13:56:26;;;;;;;2.17;2.05;;;13.80;97.50;;;14.58;52.94;95557.44;10398416;28;20380;-67
2024/03/10 14:01:30;;;;;;;2.45;2.25;;;13.70;98.90;;;14.46;54.89;95565.91;10400042;28;20311;-69
2024/03/10 14:06:35;;;;;;;3.25;3.05;;;13.50;99.90;;;14.37;56.81;95573.59;10389376;28;20633;-67
2024/03/10 14:11:38;;;;;;;2.90;2.70;;;13.40;99.90;;;14.30;57.20;95564.13;10399868;28;20225;-68
2024/03/10 14:16:41;;;;;;;2.65;2.45;;;13.30;99.90;;;14.20;56.91;95566.63;10390144;28;20233;-68
2024/03/10 14:21:46;;;;;;;2.95;2.75;;;13.20;99.90;;;14.09;57.30;95570.00;10384086;28;20225;-69
2024/03/10 14:26:49;;;;;;;3.40;3.10;;;13.10;99.90;;;14.04;57.76;95593.06;10379695;28;20255;-69
2024/03/10 14:31:52;;;;;;;2.95;2.75;;;13.10;99.90;;;14.10;57.40;95603.38;10381064;28;20260;-67
2024/03/10 14:36:57;;;;;;;2.50;2.30;;;13.10;99.90;;;13.99;58.39;95625.56;10375395;28;20237;-68
2024/03/10 14:42:01;;;;;;;2.97;2.70;;;13.00;99.90;;;13.91;59.84;95620.41;10387325;28;20737;-67
2024/03/10 14:47:05;;;;;;;4.20;3.90;;;12.90;99.90;;;13.93;60.17;95622.97;10394629;28;20232;-68
2024/03/10 14:52:09;;;;;;;3.28;3.05;;;12.90;99.90;;;13.85;58.56;95637.44;10385363;28;20632;-67
2024/03/10 14:57:13;;;;;;;3.67;3.28;;;12.70;99.90;;;13.84;57.79;95644.28;10386077;28;20233;-67
2024/03/10 15:02:16;;;;;;;3.10;2.90;;;12.70;99.90;;;13.73;58.19;95643.34;10384978;28;20225;-68
2024/03/10 15:07:21;;;;;;;3.28;3.08;;;12.70;99.90;;;13.71;59.76;95651.03;10380370;28;20234;-70
2024/03/10 15:12:24;;;;;;;4.47;4.07;;;12.60;99.90;;;13.72;58.29;95641.63;10379925;28;20230;-68
2024/03/10 15:17:28;;;;;;;3.92;3.55;;;12.70;99.90;;;13.62;58.45;95653.53;10381002;28;20234;-68
2024/03/10 15:22:33;;;;;;;4.32;4.03;;;12.60;99.90;;;13.55;57.04;95648.31;10379754;28;20225;-67
2024/03/10 15:27:40;;;;;;;3.78;3.47;;;12.50;99.90;;;13.23;58.16;95653.94;10379645;28;20227;-68
2024/03/10 15:32:43;;;;;;;5.18;4.70;;;12.30;99.90;;;13.19;57.83;95650.50;10385404;28;20233;-66
2024/03/10 15:37:48;;;;;;;5.80;5.30;;;12.20;99.90;;;12.89;57.87;95640.72;10392023;28;20880;-67
2024/03/10 15:42:51;;;;;;;5.28;4.88;;;12.00;99.90;;;12.90;59.17;95651.84;10390936;28;20267;-66
2024/03/10 15:47:55;;;;;;;5.78;5.38;;;11.90;99.90;;;12.99;59.15;95647.69;10397599;28;20332;-67
2024/03/10 15:53:03;;;;;;;4.70;4.30;;;12.00;99.90;;;12.84;60.13;95680.81;10412663;28;20302;-66
2024/03/10 15:58:07;;;;;;;5.10;4.70;;;11.80;99.90;;;12.82;59.16;95695.34;10415169;28;20237;-67
2024/03/10 16:03:18;;;;;;;5.03;4.63;;;11.70;99.90;;;12.67;60.32;95705.38;10414861;28;20639;-66
2024/03/10 16:08:26;;;;;;;5.72;5.22;;;11.60;99.90;;;12.52;60.08;95700.91;10415705;28;20252;-65
2024/03/10 16:13:34;;;;;;;5.28;4.88;;;11.50;99.90;;;12.39;61.41;95699.88;10411484;28;20340;-66
2024/03/10 16:18:40;;;;;;;5.38;4.90;;;11.40;99.90;;;12.29;61.99;95698.00;10406104;28;20230;-69
2024/03/10 16:23:44;;;;;;;7.57;6.72;;;11.30;99.90;;;12.12;62.72;95713.94;10376749;28;20291;-68
2024/03/10 16:28:48;;;;;;;7.20;6.53;;;11.10;99.90;;;12.01;62.99;95723.16;10382493;28;20272;-67
2024/03/10 16:33:51;;;;;;;7.13;6.43;;;11.10;99.90;;;11.86;63.15;95722.91;10381222;28;20222;-68
2024/03/10 16:38:57;;;;;;;7.72;7.03;;;10.90;99.90;;;11.75;64.10;95739.72;10379911;28;20226;-68
2024/03/10 16:44:01;;;;;;;16.02;12.50;;;10.80;99.90;;;11.69;65.02;95756.69;10380770;28;20660;-67
2024/03/10 16:49:04;;;;;;;11.63;9.80;;;10.80;99.90;;;11.62;65.51;95741.22;10380318;28;20261;-69
2024/03/10 16:54:09;;;;;;;10.20;9.10;;;10.70;99.90;;;11.55;66.37;95742.78;10395431;28;20236;-68
2024/03/10 16:59:13;;;;;;;13.45;12.25;;;10.60;99.90;;;11.56;66.49;95736.84;10403739;28;20737;-68
2024/03/10 17:04:17;;;;;;;8.90;8.10;;;10.60;99.90;;;11.48;68.58;95751.19;10403473;28;20221;-68
2024/03/10 17:09:22;;;;;;;11.02;9.98;;;10.40;99.90;;;11.33;68.79;95763.66;10408117;28;20308;-69
2024/03/10 17:14:25;;;;;;;10.45;9.45;;;10.40;99.90;;;11.21;69.53;95761.72;10398061;28;20362;-68
2024/03/10 17:19:29;;;;;;;9.52;8.73;;;10.30;99.90;;;11.13;69.95;95778.59;10391662;28;20803;-68
2024/03/10 17:24:34;;;;;;;9.57;8.60;;;10.20;99.90;;;11.04;70.34;95800.59;10391976;28;20232;-69
2024/03/10 17:29:37;;;;;;;10.48;9.55;;;10.10;99.90;;;10.98;71.37;95815.78;10399765;28;20326;-68
2024/03/10 17:34:40;;;;;;;10.55;9.55;;;10.10;99.90;;;10.87;70.84;95816.38;10406956;28;20222;-66
2024/03/10 17:39:45;;;;;;;12.40;11.15;;;10.00;99.90;;;10.93;71.24;95836.94;10386862;28;20237;-66
2024/03/10 17:44:48;;;;;;;11.52;10.43;;;10.00;99.90;;;10.77;71.71;95841.72;10381102;28;20309;-66
2024/03/10 17:49:52;;;;;;;11.10;10.10;;;9.90;99.90;;;10.71;72.43;95841.56;10380877;28;20360;-67
2024/03/10 17:54:56;;;;;;;13.15;10.88;;;9.80;99.90;;;10.69;73.60;95848.34;10379980;28;20596;-67
2024/03/10 18:00:00;;;;;;;12.30;11.00;;;9.80;99.90;;;10.76;72.29;95862.13;10378746;28;20324;-68
2024/03/10 18:05:03;;;;;;;11.13;10.10;;;9.70;99.90;;;10.73;72.00;95868.03;10373105;28;20217;-68
2024/03/10 18:10:11;;;;;;;12.52;11.30;;;9.70;99.90;;;10.43;72.62;95882.59;10367425;28;20331;-67
2024/03/10 18:15:16;;;;;;;19.38;14.55;;;9.60;99.90;;;10.45;73.90;95897.13;10370988;28;20635;-67
2024/03/10 18:20:24;;;;;;;51.72;30.88;;;9.50;99.90;;;10.40;75.04;95911.47;10381509;28;20240;-67
2024/03/10 18:25:29;;;;;;;94.65;62.38;;;9.50;99.90;;;10.52;73.93;95913.47;10390394;28;20662;-67
2024/03/10 18:30:33;;;;;;;11.90;10.80;;;9.50;99.90;;;10.76;71.29;95932.00;10370278;28;20222;-66
2024/03/10 18:35:36;;;;;;;26.20;19.63;;;9.60;99.90;;;10.72;70.89;95958.28;10370053;28;20744;-67
2024/03/10 18:40:41;;;;;;;18.02;16.13;;;9.70;99.90;;;10.72;72.38;95975.31;10371330;28;20977;-66
2024/03/10 18:45:44;;;;;;;14.57;13.07;;;9.60;99.90;;;10.84;72.36;95988.38;10375455;28;21379;-66
2024/03/10 18:50:48;;;;;;;15.00;13.40;;;9.70;99.90;;;10.55;73.11;95995.28;10382490;28;20226;-66
2024/03/10 18:56:02;;;;;;;16.02;14.40;;;9.60;99.90;;;10.31;75.89;96004.03;10384708;28;20225;-66
2024/03/10 19:01:10;;;;;;;15.93;14.18;;;9.50;99.90;;;10.14;78.58;96015.41;10377803;28;20673;-66
2024/03/10 19:06:15;;;;;;;17.85;15.95;;;9.40;99.90;;;9.92;82.06;96030.09;10422808;28;20621;-66
2024/03/10 19:11:23;;;;;;;20.48;18.30;;;9.30;99.90;;;9.64;86.38;96027.53;10431885;28;20719;-66
2024/03/10 19:16:27;;;;;;;17.98;16.05;;;9.10;99.90;;;9.53;90.62;96037.41;10426412;28;20232;-65
2024/03/10 19:21:30;;;;;;;17.73;15.93;;;8.90;99.90;;;9.40;92.73;96045.50;10424755;28;20349;-65
2024/03/10 19:26:35;;;;;;;17.00;15.32;;;8.70;99.90;;;9.28;96.03;96062.94;10425144;28;22082;-65
2024/03/10 19:31:38;;;;;;;15.43;13.80;;;8.60;99.90;;;9.33;98.46;96059.72;10424678;28;20239;-65
2024/03/10 19:36:42;;;;;;;14.68;13.13;;;8.50;99.90;;;9.11;100.00;96065.78;10423509;28;20222;-65
2024/03/10 19:41:46;;;;;;;15.13;12.47;;;8.40;99.90;;;8.99;100.00;96075.59;10423037;28;20715;-65
2024/03/10 19:46:50;;;;;;;19.83;16.27;;;8.30;99.90;;;8.85;100.00;96077.66;10420576;28;20233;-64
2024/03/10 19:51:53;;;;;;;19.50;16.40;;;8.20;99.90;;;8.62;100.00;96088.72;10429146;28;20231;-64
2024/03/10 19:56:58;;;;;;;16.77;14.97;;;8.10;99.90;;;8.73;100.00;96090.84;10421933;28;20952;-64
2024/03/10 20:02:01;;;;;;;14.93;13.43;;;8.10;99.90;;;8.87;100.00;96106.59;10432882;28;20229;-64
2024/03/10 20:07:05;;;;;;;13.43;12.13;;;8.10;99.90;;;8.93;100.00;96086.44;10418037;28;20316;-66
2024/03/10 20:12:10;;;;;;;13.50;12.27;;;8.20;99.90;;;8.90;100.00;96086.31;10421302;28;20229;-67
2024/03/10 20:17:14;;;;;;;11.87;10.63;;;8.30;99.90;;;8.68;100.00;96096.56;10424041;28;20236;-65
2024/03/10 20:22:17;;;;;;;11.63;10.53;;;8.30;99.90;;;8.40;100.00;96103.22;10427104;28;20248;-65
2024/03/10 20:27:22;;;;;;;10.30;9.30;;;7.90;99.90;;;8.42;100.00;96099.03;10432650;28;20229;-65
2024/03/10 20:32:26;;;;;;;17.07;14.23;;;8.00;99.90;;;8.29;100.00;96112.94;10414342;28;20228;-66
2024/03/10 20:37:29;;;;;;;8.43;7.73;;;7.70;99.90;;;8.17;100.00;96140.50;10431550;28;20233;-65
2024/03/10 20:42:34;;;;;;;16.17;11.07;;;7.60;99.90;;;8.12;100.00;96140.31;10422442;28;20225;-65
2024/03/10 20:47:38;;;;;;;50.53;28.67;;;7.40;99.90;;;7.90;100.00;96137.75;10433541;28;20626;-65
2024/03/10 20:52:42;;;;;;;8.23;7.30;;;7.30;99.90;;;7.87;100.00;96143.59;10428673;28;20228;-65
2024/03/10 20:57:47;;;;;;;6.83;6.23;;;7.30;99.90;;;7.90;100.00;96145.41;10430866;28;20508;-65
2024/03/10 21:02:50;;;;;;;6.30;5.70;;;7.10;99.90;;;7.88;100.00;96152.09;10428553;28;20304;-65
2024/03/10 21:07:54;;;;;;;8.93;8.13;;;7.10;99.90;;;7.77;100.00;96149.09;10428673;28;20233;-65
2024/03/10 21:12:58;;;;;;;9.10;8.40;;;7.10;99.90;;;7.60;100.00;96150.97;10414450;28;20312;-65
2024/03/10 21:18:02;;;;;;;7.27;6.67;;;7.10;99.90;;;7.76;100.00;96155.00;10412296;28;20327;-66
2024/03/10 21:23:06;;;;;;;8.37;7.77;;;7.10;99.90;;;7.83;100.00;96179.00;10412903;28;20229;-65
2024/03/10 21:28:11;;;;;;;5.27;4.87;;;7.10;99.90;;;7.86;100.00;96181.66;10413976;28;20411;-65
2024/03/10 21:33:14;;;;;;;5.03;4.60;;;7.10;99.90;;;7.86;100.00;96196.94;10416789;28;20229;-65
2024/03/10 21:38:19;;;;;;;5.20;4.80;;;7.10;99.90;;;7.78;100.00;96216.97;10412134;28;20371;-65